sensor_id;sensor_type;location;lat;lon;timestamp;temperature;humidity
67163;DHT22;54092;53.088;8.850;2023-02-01T00:01:17;6.40;99.90
67163;DHT22;54092;53.088;8.850;2023-02-01T00:03:43;6.30;99.90
67163;DHT22;54092;53.088;8.850;2023-02-01T00:06:08;6.30;99.90
67163;DHT22;54092;53.088;8.850;2023-02-01T00:08:34;6.30;99.90
67163;DHT22;54092;53.088;8.850;2023-02-01T00:11:02;6.30;99.90
67163;DHT22;54092;53.088;8.850;2023-02-01T00:13:31;6.30;99.90
67163;DHT22;54092;53.088;8.850;2023-02-01T00:16:07;6.30;99.90
67163;DHT22;54092;53.088;8.850;2023-02-01T00:18:33;6.30;99.90
67163;DHT22;54092;53.088;8.850;2023-02-01T00:20:59;6.40;99.90
67163;DHT22;54092;53.088;8.850;2023-02-01T00:23:25;6.40;99.90
67163;DHT22;54092;53.088;8.850;2023-02-01T00:25:51;6.40;99.90
67163;DHT22;54092;53.088;8.850;2023-02-01T00:28:16;6.40;99.90
67163;DHT22;54092;53.088;8.850;2023-02-01T00:30:42;6.40;99.90
67163;DHT22;54092;53.088;8.850;2023-02-01T00:33:07;6.40;99.90
67163;DHT22;54092;53.088;8.850;2023-02-01T00:35:36;6.40;99.90
67163;DHT22;54092;53.088;8.850;2023-02-01T00:38:02;6.40;99.90
67163;DHT22;54092;53.088;8.850;2023-02-01T00:40:27;6.40;99.90
67163;DHT22;54092;53.088;8.850;2023-02-01T00:42:53;6.50;99.90
67163;DHT22;54092;53.088;8.850;2023-02-01T00:45:19;6.50;99.90
67163;DHT22;54092;53.088;8.850;2023-02-01T00:47:45;6.50;99.90
67163;DHT22;54092;53.088;8.850;2023-02-01T00:50:10;6.50;99.90
67163;DHT22;54092;53.088;8.850;2023-02-01T00:52:36;6.50;99.90
67163;DHT22;54092;53.088;8.850;2023-02-01T00:55:01;6.50;99.90
67163;DHT22;54092;53.088;8.850;2023-02-01T00:57:27;6.50;99.90
67163;DHT22;54092;53.088;8.850;2023-02-01T00:59:52;6.50;99.90
67163;DHT22;54092;53.088;8.850;2023-02-01T01:02:18;6.50;99.90
67163;DHT22;54092;53.088;8.850;2023-02-01T01:04:43;6.50;99.90
67163;DHT22;54092;53.088;8.850;2023-02-01T01:07:09;6.50;99.90
67163;DHT22;54092;53.088;8.850;2023-02-01T01:09:34;6.50;99.90
67163;DHT22;54092;53.088;8.850;2023-02-01T01:12:00;6.60;99.90
67163;DHT22;54092;53.088;8.850;2023-02-01T01:14:28;6.50;99.90
67163;DHT22;54092;53.088;8.850;2023-02-01T01:16:54;6.50;99.90
67163;DHT22;54092;53.088;8.850;2023-02-01T01:19:19;6.60;99.90
67163;DHT22;54092;53.088;8.850;2023-02-01T01:21:45;6.60;99.90
67163;DHT22;54092;53.088;8.850;2023-02-01T01:24:10;6.60;99.90
67163;DHT22;54092;53.088;8.850;2023-02-01T01:26:36;6.60;99.90
67163;DHT22;54092;53.088;8.850;2023-02-01T01:29:01;6.60;99.90
67163;DHT22;54092;53.088;8.850;2023-02-01T01:31:27;6.60;99.90
67163;DHT22;54092;53.088;8.850;2023-02-01T01:33:55;6.60;99.90
67163;DHT22;54092;53.088;8.850;2023-02-01T01:36:21;6.60;99.90
67163;DHT22;54092;53.088;8.850;2023-02-01T01:38:47;6.60;99.90
67163;DHT22;54092;53.088;8.850;2023-02-01T01:41:24;6.60;99.90
67163;DHT22;54092;53.088;8.850;2023-02-01T01:44:02;6.60;99.90
67163;DHT22;54092;53.088;8.850;2023-02-01T01:51:42;6.60;99.90
67163;DHT22;54092;53.088;8.850;2023-02-01T01:54:17;6.60;99.90
67163;DHT22;54092;53.088;8.850;2023-02-01T01:56:49;6.50;99.90
67163;DHT22;54092;53.088;8.850;2023-02-01T01:59:16;6.60;99.90
67163;DHT22;54092;53.088;8.850;2023-02-01T02:01:42;6.50;99.90
67163;DHT22;54092;53.088;8.850;2023-02-01T02:04:07;6.60;99.90
67163;DHT22;54092;53.088;8.850;2023-02-01T02:06:42;6.60;99.90
67163;DHT22;54092;53.088;8.850;2023-02-01T02:09:10;6.60;99.90
67163;DHT22;54092;53.088;8.850;2023-02-01T02:11:36;6.50;99.90
67163;DHT22;54092;53.088;8.850;2023-02-01T02:14:03;6.60;99.90
67163;DHT22;54092;53.088;8.850;2023-02-01T02:17:12;6.50;99.90
67163;DHT22;54092;53.088;8.850;2023-02-01T02:20:05;6.50;99.90
67163;DHT22;54092;53.088;8.850;2023-02-01T02:31:36;6.50;99.90
67163;DHT22;54092;53.088;8.850;2023-02-01T02:34:28;6.50;99.90
67163;DHT22;54092;53.088;8.850;2023-02-01T02:37:33;6.50;99.90
67163;DHT22;54092;53.088;8.850;2023-02-01T02:40:18;6.50;99.90
67163;DHT22;54092;53.088;8.850;2023-02-01T02:46:01;6.50;99.90
67163;DHT22;54092;53.088;8.850;2023-02-01T02:49:05;6.50;99.90
67163;DHT22;54092;53.088;8.850;2023-02-01T02:51:46;6.40;99.90
67163;DHT22;54092;53.088;8.850;2023-02-01T02:54:36;6.40;99.90
67163;DHT22;54092;53.088;8.850;2023-02-01T02:57:34;6.50;99.90
67163;DHT22;54092;53.088;8.850;2023-02-01T03:00:23;6.50;99.90
67163;DHT22;54092;53.088;8.850;2023-02-01T03:03:08;6.50;99.90
67163;DHT22;54092;53.088;8.850;2023-02-01T03:05:52;6.50;99.90
67163;DHT22;54092;53.088;8.850;2023-02-01T03:08:20;6.50;99.90
67163;DHT22;54092;53.088;8.850;2023-02-01T03:13:51;6.40;99.90
67163;DHT22;54092;53.088;8.850;2023-02-01T03:16:26;6.50;99.90
67163;DHT22;54092;53.088;8.850;2023-02-01T03:21:31;6.50;99.90
67163;DHT22;54092;53.088;8.850;2023-02-01T03:24:03;6.40;99.90
67163;DHT22;54092;53.088;8.850;2023-02-01T03:26:31;6.40;99.90
67163;DHT22;54092;53.088;8.850;2023-02-01T03:29:05;6.40;99.90
67163;DHT22;54092;53.088;8.850;2023-02-01T03:31:34;6.40;99.90
67163;DHT22;54092;53.088;8.850;2023-02-01T03:33:59;6.30;99.90
67163;DHT22;54092;53.088;8.850;2023-02-01T03:36:29;6.20;99.90
67163;DHT22;54092;53.088;8.850;2023-02-01T03:39:16;5.90;99.90
67163;DHT22;54092;53.088;8.850;2023-02-01T03:41:53;5.80;99.90
67163;DHT22;54092;53.088;8.850;2023-02-01T03:44:27;5.70;99.90
67163;DHT22;54092;53.088;8.850;2023-02-01T03:47:13;5.60;99.90
67163;DHT22;54092;53.088;8.850;2023-02-01T03:49:48;5.50;99.90
67163;DHT22;54092;53.088;8.850;2023-02-01T03:52:17;5.50;99.90
67163;DHT22;54092;53.088;8.850;2023-02-01T03:54:44;5.40;99.90
67163;DHT22;54092;53.088;8.850;2023-02-01T03:57:13;5.40;99.90
67163;DHT22;54092;53.088;8.850;2023-02-01T03:59:41;5.40;99.90
67163;DHT22;54092;53.088;8.850;2023-02-01T04:02:07;5.40;99.90
67163;DHT22;54092;53.088;8.850;2023-02-01T04:04:34;5.40;99.90
67163;DHT22;54092;53.088;8.850;2023-02-01T04:07:00;5.40;99.90
67163;DHT22;54092;53.088;8.850;2023-02-01T04:09:25;5.40;99.90
67163;DHT22;54092;53.088;8.850;2023-02-01T04:11:51;5.40;99.90
67163;DHT22;54092;53.088;8.850;2023-02-01T04:14:16;5.30;99.90
67163;DHT22;54092;53.088;8.850;2023-02-01T04:16:42;5.30;99.90
67163;DHT22;54092;53.088;8.850;2023-02-01T04:19:07;5.20;99.90
67163;DHT22;54092;53.088;8.850;2023-02-01T04:21:33;5.10;99.90
67163;DHT22;54092;53.088;8.850;2023-02-01T04:23:58;5.10;99.90
67163;DHT22;54092;53.088;8.850;2023-02-01T04:26:24;5.00;99.90
67163;DHT22;54092;53.088;8.850;2023-02-01T04:28:50;5.00;99.90
67163;DHT22;54092;53.088;8.850;2023-02-01T04:31:16;5.10;99.90
67163;DHT22;54092;53.088;8.850;2023-02-01T04:33:42;5.10;99.90
67163;DHT22;54092;53.088;8.850;2023-02-01T04:36:08;5.10;99.90
67163;DHT22;54092;53.088;8.850;2023-02-01T04:38:34;5.20;99.90
67163;DHT22;54092;53.088;8.850;2023-02-01T04:40:59;5.30;99.90
67163;DHT22;54092;53.088;8.850;2023-02-01T04:43:25;5.30;99.90
67163;DHT22;54092;53.088;8.850;2023-02-01T04:45:51;5.30;99.90
67163;DHT22;54092;53.088;8.850;2023-02-01T04:48:18;5.40;99.90
67163;DHT22;54092;53.088;8.850;2023-02-01T04:50:45;5.40;99.90
67163;DHT22;54092;53.088;8.850;2023-02-01T04:53:16;5.50;99.90
67163;DHT22;54092;53.088;8.850;2023-02-01T04:55:43;5.50;99.90
67163;DHT22;54092;53.088;8.850;2023-02-01T04:58:10;5.50;99.90
67163;DHT22;54092;53.088;8.850;2023-02-01T05:00:36;5.60;99.90
67163;DHT22;54092;53.088;8.850;2023-02-01T05:03:01;5.60;99.90
67163;DHT22;54092;53.088;8.850;2023-02-01T05:05:28;5.60;99.90
67163;DHT22;54092;53.088;8.850;2023-02-01T05:07:54;5.60;99.90
67163;DHT22;54092;53.088;8.850;2023-02-01T05:10:19;5.60;99.90
67163;DHT22;54092;53.088;8.850;2023-02-01T05:12:45;5.60;99.90
67163;DHT22;54092;53.088;8.850;2023-02-01T05:15:30;5.60;99.90
67163;DHT22;54092;53.088;8.850;2023-02-01T05:17:56;5.70;99.90
67163;DHT22;54092;53.088;8.850;2023-02-01T05:20:22;5.70;99.90
67163;DHT22;54092;53.088;8.850;2023-02-01T05:22:47;5.70;99.90
67163;DHT22;54092;53.088;8.850;2023-02-01T05:25:13;5.70;99.90
67163;DHT22;54092;53.088;8.850;2023-02-01T05:27:39;5.60;99.90
67163;DHT22;54092;53.088;8.850;2023-02-01T05:30:06;5.60;99.90
67163;DHT22;54092;53.088;8.850;2023-02-01T05:32:31;5.70;99.90
67163;DHT22;54092;53.088;8.850;2023-02-01T05:34:57;5.70;99.90
67163;DHT22;54092;53.088;8.850;2023-02-01T05:37:22;5.70;99.90
67163;DHT22;54092;53.088;8.850;2023-02-01T05:39:48;5.70;99.90
67163;DHT22;54092;53.088;8.850;2023-02-01T05:42:14;5.70;99.90
67163;DHT22;54092;53.088;8.850;2023-02-01T05:44:39;5.70;99.90
67163;DHT22;54092;53.088;8.850;2023-02-01T05:47:05;5.80;99.90
67163;DHT22;54092;53.088;8.850;2023-02-01T05:49:30;5.70;99.90
67163;DHT22;54092;53.088;8.850;2023-02-01T05:51:56;5.70;99.90
67163;DHT22;54092;53.088;8.850;2023-02-01T05:54:21;5.70;99.90
67163;DHT22;54092;53.088;8.850;2023-02-01T05:56:47;5.70;99.90
67163;DHT22;54092;53.088;8.850;2023-02-01T05:59:12;5.80;99.90
67163;DHT22;54092;53.088;8.850;2023-02-01T06:01:38;5.70;99.90
67163;DHT22;54092;53.088;8.850;2023-02-01T06:04:03;5.70;99.90
67163;DHT22;54092;53.088;8.850;2023-02-01T06:06:29;5.60;99.90
67163;DHT22;54092;53.088;8.850;2023-02-01T06:08:54;5.60;99.90
67163;DHT22;54092;53.088;8.850;2023-02-01T06:11:20;5.50;99.90
67163;DHT22;54092;53.088;8.850;2023-02-01T06:13:45;5.50;99.90
67163;DHT22;54092;53.088;8.850;2023-02-01T06:16:11;5.50;99.90
67163;DHT22;54092;53.088;8.850;2023-02-01T06:18:36;5.50;99.90
67163;DHT22;54092;53.088;8.850;2023-02-01T06:21:03;5.50;99.90
67163;DHT22;54092;53.088;8.850;2023-02-01T06:23:29;5.40;99.90
67163;DHT22;54092;53.088;8.850;2023-02-01T06:26:04;5.40;99.90
67163;DHT22;54092;53.088;8.850;2023-02-01T06:28:30;5.50;99.90
67163;DHT22;54092;53.088;8.850;2023-02-01T06:30:56;5.60;99.90
67163;DHT22;54092;53.088;8.850;2023-02-01T06:33:23;5.60;99.90
67163;DHT22;54092;53.088;8.850;2023-02-01T06:35:49;5.60;99.90
67163;DHT22;54092;53.088;8.850;2023-02-01T06:38:21;5.60;99.90
67163;DHT22;54092;53.088;8.850;2023-02-01T06:40:52;5.60;99.90
67163;DHT22;54092;53.088;8.850;2023-02-01T06:43:18;5.60;99.90
67163;DHT22;54092;53.088;8.850;2023-02-01T06:45:43;5.60;99.90
67163;DHT22;54092;53.088;8.850;2023-02-01T06:48:09;5.60;99.90
67163;DHT22;54092;53.088;8.850;2023-02-01T06:50:34;5.70;99.90
67163;DHT22;54092;53.088;8.850;2023-02-01T06:53:00;5.70;99.90
67163;DHT22;54092;53.088;8.850;2023-02-01T06:55:26;5.80;99.90
67163;DHT22;54092;53.088;8.850;2023-02-01T06:57:55;5.90;99.90
67163;DHT22;54092;53.088;8.850;2023-02-01T07:00:22;5.90;99.90
67163;DHT22;54092;53.088;8.850;2023-02-01T07:02:48;6.00;99.90
67163;DHT22;54092;53.088;8.850;2023-02-01T07:05:14;6.00;99.90
67163;DHT22;54092;53.088;8.850;2023-02-01T07:07:40;6.00;99.90
67163;DHT22;54092;53.088;8.850;2023-02-01T07:10:05;6.00;99.90
67163;DHT22;54092;53.088;8.850;2023-02-01T07:12:31;6.00;99.90
67163;DHT22;54092;53.088;8.850;2023-02-01T07:14:57;5.90;99.90
67163;DHT22;54092;53.088;8.850;2023-02-01T07:17:23;5.90;99.90
67163;DHT22;54092;53.088;8.850;2023-02-01T07:19:48;5.80;99.90
67163;DHT22;54092;53.088;8.850;2023-02-01T07:22:16;5.70;99.90
67163;DHT22;54092;53.088;8.850;2023-02-01T07:24:42;5.60;99.90
67163;DHT22;54092;53.088;8.850;2023-02-01T07:27:07;5.60;99.90
67163;DHT22;54092;53.088;8.850;2023-02-01T07:29:33;5.60;99.90
67163;DHT22;54092;53.088;8.850;2023-02-01T07:31:58;5.60;99.90
67163;DHT22;54092;53.088;8.850;2023-02-01T07:34:25;5.50;99.90
67163;DHT22;54092;53.088;8.850;2023-02-01T07:36:51;5.50;99.90
67163;DHT22;54092;53.088;8.850;2023-02-01T07:39:16;5.50;99.90
67163;DHT22;54092;53.088;8.850;2023-02-01T07:41:41;5.50;99.90
67163;DHT22;54092;53.088;8.850;2023-02-01T07:44:07;5.50;99.90
67163;DHT22;54092;53.088;8.850;2023-02-01T07:46:32;5.50;99.90
67163;DHT22;54092;53.088;8.850;2023-02-01T07:48:58;5.60;99.90
67163;DHT22;54092;53.088;8.850;2023-02-01T07:51:23;5.70;99.90
67163;DHT22;54092;53.088;8.850;2023-02-01T07:53:49;5.70;99.90
67163;DHT22;54092;53.088;8.850;2023-02-01T07:56:17;5.80;99.90
67163;DHT22;54092;53.088;8.850;2023-02-01T07:58:47;5.80;99.90
67163;DHT22;54092;53.088;8.850;2023-02-01T08:01:15;5.80;99.90
67163;DHT22;54092;53.088;8.850;2023-02-01T08:03:58;5.90;99.90
67163;DHT22;54092;53.088;8.850;2023-02-01T08:06:27;6.00;99.90
67163;DHT22;54092;53.088;8.850;2023-02-01T08:08:53;6.00;99.90
67163;DHT22;54092;53.088;8.850;2023-02-01T08:11:20;6.10;99.90
67163;DHT22;54092;53.088;8.850;2023-02-01T08:13:46;6.10;99.90
67163;DHT22;54092;53.088;8.850;2023-02-01T08:16:13;6.20;99.90
67163;DHT22;54092;53.088;8.850;2023-02-01T08:18:39;6.30;99.90
67163;DHT22;54092;53.088;8.850;2023-02-01T08:21:15;6.30;99.90
67163;DHT22;54092;53.088;8.850;2023-02-01T08:23:41;6.30;99.90
67163;DHT22;54092;53.088;8.850;2023-02-01T08:26:15;6.20;99.90
67163;DHT22;54092;53.088;8.850;2023-02-01T08:28:44;6.20;99.90
67163;DHT22;54092;53.088;8.850;2023-02-01T08:31:13;6.20;99.90
67163;DHT22;54092;53.088;8.850;2023-02-01T08:33:40;6.20;99.90
67163;DHT22;54092;53.088;8.850;2023-02-01T08:36:07;6.30;99.90
67163;DHT22;54092;53.088;8.850;2023-02-01T08:38:35;6.40;99.90
67163;DHT22;54092;53.088;8.850;2023-02-01T08:41:14;6.50;99.90
67163;DHT22;54092;53.088;8.850;2023-02-01T08:43:40;6.90;99.90
67163;DHT22;54092;53.088;8.850;2023-02-01T08:46:06;7.30;99.90
67163;DHT22;54092;53.088;8.850;2023-02-01T08:48:32;7.60;99.90
67163;DHT22;54092;53.088;8.850;2023-02-01T08:51:01;7.80;99.90
67163;DHT22;54092;53.088;8.850;2023-02-01T08:53:27;7.80;99.90
67163;DHT22;54092;53.088;8.850;2023-02-01T08:55:53;7.50;99.90
67163;DHT22;54092;53.088;8.850;2023-02-01T08:58:18;7.40;99.90
67163;DHT22;54092;53.088;8.850;2023-02-01T09:00:45;7.20;99.90
67163;DHT22;54092;53.088;8.850;2023-02-01T09:03:11;7.00;99.90
67163;DHT22;54092;53.088;8.850;2023-02-01T09:05:36;6.90;99.90
67163;DHT22;54092;53.088;8.850;2023-02-01T09:08:02;6.80;99.90
67163;DHT22;54092;53.088;8.850;2023-02-01T09:10:27;6.80;99.90
67163;DHT22;54092;53.088;8.850;2023-02-01T09:12:53;6.80;99.90
67163;DHT22;54092;53.088;8.850;2023-02-01T09:15:18;6.80;99.90
67163;DHT22;54092;53.088;8.850;2023-02-01T09:17:44;6.90;99.90
67163;DHT22;54092;53.088;8.850;2023-02-01T09:20:10;6.80;99.90
67163;DHT22;54092;53.088;8.850;2023-02-01T09:22:35;6.70;99.90
67163;DHT22;54092;53.088;8.850;2023-02-01T09:25:01;6.90;99.90
67163;DHT22;54092;53.088;8.850;2023-02-01T09:27:26;7.00;99.90
67163;DHT22;54092;53.088;8.850;2023-02-01T09:29:52;7.00;99.90
67163;DHT22;54092;53.088;8.850;2023-02-01T09:32:21;7.00;99.90
67163;DHT22;54092;53.088;8.850;2023-02-01T09:34:48;7.00;99.90
67163;DHT22;54092;53.088;8.850;2023-02-01T09:37:13;7.00;99.90
67163;DHT22;54092;53.088;8.850;2023-02-01T09:39:39;7.00;99.90
67163;DHT22;54092;53.088;8.850;2023-02-01T09:47:22;7.00;99.90
67163;DHT22;54092;53.088;8.850;2023-02-01T09:50:15;7.00;99.90
67163;DHT22;54092;53.088;8.850;2023-02-01T09:52:52;7.00;99.90
67163;DHT22;54092;53.088;8.850;2023-02-01T09:55:30;7.00;99.90
67163;DHT22;54092;53.088;8.850;2023-02-01T09:58:03;7.00;99.90
67163;DHT22;54092;53.088;8.850;2023-02-01T10:00:35;7.00;99.90
67163;DHT22;54092;53.088;8.850;2023-02-01T10:03:01;7.00;99.90
67163;DHT22;54092;53.088;8.850;2023-02-01T10:06:10;7.00;99.90
67163;DHT22;54092;53.088;8.850;2023-02-01T10:09:01;7.00;99.90
67163;DHT22;54092;53.088;8.850;2023-02-01T10:14:43;7.10;99.90
67163;DHT22;54092;53.088;8.850;2023-02-01T10:17:43;7.10;99.90
67163;DHT22;54092;53.088;8.850;2023-02-01T10:20:51;7.10;99.90
67163;DHT22;54092;53.088;8.850;2023-02-01T10:23:39;7.10;99.90
67163;DHT22;54092;53.088;8.850;2023-02-01T10:26:24;7.00;99.90
67163;DHT22;54092;53.088;8.850;2023-02-01T10:29:02;6.90;99.90
67163;DHT22;54092;53.088;8.850;2023-02-01T10:31:35;6.80;99.90
67163;DHT22;54092;53.088;8.850;2023-02-01T10:34:15;6.70;99.90
67163;DHT22;54092;53.088;8.850;2023-02-01T10:37:11;6.70;99.90
67163;DHT22;54092;53.088;8.850;2023-02-01T10:39:44;6.90;99.90
67163;DHT22;54092;53.088;8.850;2023-02-01T10:42:10;6.80;99.90
67163;DHT22;54092;53.088;8.850;2023-02-01T10:44:38;6.60;99.90
67163;DHT22;54092;53.088;8.850;2023-02-01T10:47:05;6.50;99.90
67163;DHT22;54092;53.088;8.850;2023-02-01T10:49:38;6.40;99.90
67163;DHT22;54092;53.088;8.850;2023-02-01T10:52:12;6.30;99.90
67163;DHT22;54092;53.088;8.850;2023-02-01T10:54:41;6.30;99.90
67163;DHT22;54092;53.088;8.850;2023-02-01T10:57:26;6.30;99.90
67163;DHT22;54092;53.088;8.850;2023-02-01T10:59:55;6.30;99.90
67163;DHT22;54092;53.088;8.850;2023-02-01T11:02:33;6.20;99.90
67163;DHT22;54092;53.088;8.850;2023-02-01T11:05:05;6.00;99.90
67163;DHT22;54092;53.088;8.850;2023-02-01T11:07:35;5.90;99.90
67163;DHT22;54092;53.088;8.850;2023-02-01T11:10:01;5.90;99.90
67163;DHT22;54092;53.088;8.850;2023-02-01T11:14:59;6.00;99.90
67163;DHT22;54092;53.088;8.850;2023-02-01T11:17:32;6.10;99.90
67163;DHT22;54092;53.088;8.850;2023-02-01T11:20:00;6.10;99.90
67163;DHT22;54092;53.088;8.850;2023-02-01T11:22:27;6.00;99.90
67163;DHT22;54092;53.088;8.850;2023-02-01T11:24:55;5.80;99.90
67163;DHT22;54092;53.088;8.850;2023-02-01T11:27:22;5.60;99.90
67163;DHT22;54092;53.088;8.850;2023-02-01T11:29:54;5.50;99.90
67163;DHT22;54092;53.088;8.850;2023-02-01T11:32:22;5.50;99.90
67163;DHT22;54092;53.088;8.850;2023-02-01T11:34:59;5.60;99.90
67163;DHT22;54092;53.088;8.850;2023-02-01T11:37:41;5.60;99.90
67163;DHT22;54092;53.088;8.850;2023-02-01T11:43:00;5.70;99.90
67163;DHT22;54092;53.088;8.850;2023-02-01T11:45:29;5.70;99.90
67163;DHT22;54092;53.088;8.850;2023-02-01T11:47:57;5.50;99.90
67163;DHT22;54092;53.088;8.850;2023-02-01T11:53:42;5.30;99.90
67163;DHT22;54092;53.088;8.850;2023-02-01T12:06:50;5.30;99.90
67163;DHT22;54092;53.088;8.850;2023-02-01T12:28:22;4.50;99.90
67163;DHT22;54092;53.088;8.850;2023-02-01T12:30:54;4.00;99.90
67163;DHT22;54092;53.088;8.850;2023-02-01T12:41:38;3.30;99.90
67163;DHT22;54092;53.088;8.850;2023-02-01T12:44:16;3.30;99.90
67163;DHT22;54092;53.088;8.850;2023-02-01T12:46:58;3.20;99.90
67163;DHT22;54092;53.088;8.850;2023-02-01T12:50:12;3.30;99.90
67163;DHT22;54092;53.088;8.850;2023-02-01T12:52:26;3.40;99.90
67163;DHT22;54092;53.088;8.850;2023-02-01T12:55:00;3.50;99.90
67163;DHT22;54092;53.088;8.850;2023-02-01T12:57:33;3.60;99.90
67163;DHT22;54092;53.088;8.850;2023-02-01T13:02:56;4.00;99.90
67163;DHT22;54092;53.088;8.850;2023-02-01T13:05:45;4.40;99.90
67163;DHT22;54092;53.088;8.850;2023-02-01T13:08:16;4.50;99.90
67163;DHT22;54092;53.088;8.850;2023-02-01T13:10:47;4.60;99.90
67163;DHT22;54092;53.088;8.850;2023-02-01T13:16:28;4.60;99.90
67163;DHT22;54092;53.088;8.850;2023-02-01T13:18:37;4.80;99.90
67163;DHT22;54092;53.088;8.850;2023-02-01T13:21:21;4.80;99.90
67163;DHT22;54092;53.088;8.850;2023-02-01T13:23:49;4.70;99.90
67163;DHT22;54092;53.088;8.850;2023-02-01T13:26:15;4.50;99.90
67163;DHT22;54092;53.088;8.850;2023-02-01T13:28:56;4.30;99.90
67163;DHT22;54092;53.088;8.850;2023-02-01T13:31:33;4.30;99.90
67163;DHT22;54092;53.088;8.850;2023-02-01T13:43:19;6.00;99.90
67163;DHT22;54092;53.088;8.850;2023-02-01T13:45:52;6.60;99.90
67163;DHT22;54092;53.088;8.850;2023-02-01T13:48:33;6.70;99.90
67163;DHT22;54092;53.088;8.850;2023-02-01T13:51:01;6.40;99.90
67163;DHT22;54092;53.088;8.850;2023-02-01T13:53:37;6.00;99.90
67163;DHT22;54092;53.088;8.850;2023-02-01T13:56:16;5.90;99.90
67163;DHT22;54092;53.088;8.850;2023-02-01T13:58:44;5.80;99.90
67163;DHT22;54092;53.088;8.850;2023-02-01T14:04:04;6.10;99.90
67163;DHT22;54092;53.088;8.850;2023-02-01T14:11:44;6.60;99.90
67163;DHT22;54092;53.088;8.850;2023-02-01T14:19:29;6.30;99.90
67163;DHT22;54092;53.088;8.850;2023-02-01T14:24:54;6.30;99.90
67163;DHT22;54092;53.088;8.850;2023-02-01T14:27:23;6.20;99.90
67163;DHT22;54092;53.088;8.850;2023-02-01T14:30:01;6.20;99.90
67163;DHT22;54092;53.088;8.850;2023-02-01T14:32:40;6.40;99.90
67163;DHT22;54092;53.088;8.850;2023-02-01T14:35:20;6.40;99.90
67163;DHT22;54092;53.088;8.850;2023-02-01T14:37:50;6.30;99.90
67163;DHT22;54092;53.088;8.850;2023-02-01T14:40:17;6.30;99.90
67163;DHT22;54092;53.088;8.850;2023-02-01T14:42:49;6.30;99.90
67163;DHT22;54092;53.088;8.850;2023-02-01T14:50:39;6.60;99.90
67163;DHT22;54092;53.088;8.850;2023-02-01T15:01:31;6.50;99.90
67163;DHT22;54092;53.088;8.850;2023-02-01T15:04:09;6.40;99.90
67163;DHT22;54092;53.088;8.850;2023-02-01T15:06:41;6.40;99.90
67163;DHT22;54092;53.088;8.850;2023-02-01T15:09:19;6.50;99.90
67163;DHT22;54092;53.088;8.850;2023-02-01T15:14:41;6.60;99.90
67163;DHT22;54092;53.088;8.850;2023-02-01T15:17:37;6.50;99.90
67163;DHT22;54092;53.088;8.850;2023-02-01T15:20:14;6.50;99.90
67163;DHT22;54092;53.088;8.850;2023-02-01T15:22:41;6.50;99.90
67163;DHT22;54092;53.088;8.850;2023-02-01T15:25:34;6.40;99.90
67163;DHT22;54092;53.088;8.850;2023-02-01T15:28:02;6.50;99.90
67163;DHT22;54092;53.088;8.850;2023-02-01T15:30:30;6.60;99.90
67163;DHT22;54092;53.088;8.850;2023-02-01T15:33:17;6.60;99.90
67163;DHT22;54092;53.088;8.850;2023-02-01T15:38:19;6.60;99.90
67163;DHT22;54092;53.088;8.850;2023-02-01T15:43:37;6.80;99.90
67163;DHT22;54092;53.088;8.850;2023-02-01T15:46:08;6.90;99.90
67163;DHT22;54092;53.088;8.850;2023-02-01T15:48:54;6.90;99.90
67163;DHT22;54092;53.088;8.850;2023-02-01T15:51:26;6.90;99.90
67163;DHT22;54092;53.088;8.850;2023-02-01T15:53:58;6.90;99.90
67163;DHT22;54092;53.088;8.850;2023-02-01T15:56:27;7.00;99.90
67163;DHT22;54092;53.088;8.850;2023-02-01T15:58:57;7.00;99.90
67163;DHT22;54092;53.088;8.850;2023-02-01T16:01:23;7.00;99.90
67163;DHT22;54092;53.088;8.850;2023-02-01T16:03:50;7.00;99.90
67163;DHT22;54092;53.088;8.850;2023-02-01T16:06:29;7.00;99.90
67163;DHT22;54092;53.088;8.850;2023-02-01T16:09:10;6.80;99.90
67163;DHT22;54092;53.088;8.850;2023-02-01T16:11:46;6.50;99.90
67163;DHT22;54092;53.088;8.850;2023-02-01T16:14:13;6.00;99.90
67163;DHT22;54092;53.088;8.850;2023-02-01T16:16:38;5.90;99.90
67163;DHT22;54092;53.088;8.850;2023-02-01T16:19:04;5.70;99.90
67163;DHT22;54092;53.088;8.850;2023-02-01T16:21:29;5.60;99.90
67163;DHT22;54092;53.088;8.850;2023-02-01T16:23:55;5.40;99.90
67163;DHT22;54092;53.088;8.850;2023-02-01T16:26:20;5.30;99.90
67163;DHT22;54092;53.088;8.850;2023-02-01T16:28:46;5.20;99.90
67163;DHT22;54092;53.088;8.850;2023-02-01T16:31:14;5.20;99.90
67163;DHT22;54092;53.088;8.850;2023-02-01T16:33:45;5.20;99.90
67163;DHT22;54092;53.088;8.850;2023-02-01T16:36:11;5.20;99.90
67163;DHT22;54092;53.088;8.850;2023-02-01T16:38:38;5.20;99.90
67163;DHT22;54092;53.088;8.850;2023-02-01T16:41:04;5.30;99.90
67163;DHT22;54092;53.088;8.850;2023-02-01T16:43:30;5.40;99.90
67163;DHT22;54092;53.088;8.850;2023-02-01T16:46:00;5.50;99.90
67163;DHT22;54092;53.088;8.850;2023-02-01T16:48:30;5.50;99.90
67163;DHT22;54092;53.088;8.850;2023-02-01T16:51:00;5.40;99.90
67163;DHT22;54092;53.088;8.850;2023-02-01T16:53:28;5.40;99.90
67163;DHT22;54092;53.088;8.850;2023-02-01T16:55:54;5.40;99.90
67163;DHT22;54092;53.088;8.850;2023-02-01T16:58:24;5.40;99.90
67163;DHT22;54092;53.088;8.850;2023-02-01T17:00:50;5.40;99.90
67163;DHT22;54092;53.088;8.850;2023-02-01T17:03:19;5.40;99.90
67163;DHT22;54092;53.088;8.850;2023-02-01T17:05:54;5.50;99.90
67163;DHT22;54092;53.088;8.850;2023-02-01T17:08:32;5.50;99.90
67163;DHT22;54092;53.088;8.850;2023-02-01T17:10:59;5.60;99.90
67163;DHT22;54092;53.088;8.850;2023-02-01T17:13:25;5.60;99.90
67163;DHT22;54092;53.088;8.850;2023-02-01T17:15:59;5.70;99.90
67163;DHT22;54092;53.088;8.850;2023-02-01T17:18:28;5.70;99.90
67163;DHT22;54092;53.088;8.850;2023-02-01T17:20:58;5.70;99.90
67163;DHT22;54092;53.088;8.850;2023-02-01T17:23:24;5.60;99.90
67163;DHT22;54092;53.088;8.850;2023-02-01T17:25:49;5.60;99.90
67163;DHT22;54092;53.088;8.850;2023-02-01T17:28:15;5.60;99.90
67163;DHT22;54092;53.088;8.850;2023-02-01T17:30:40;5.50;99.90
67163;DHT22;54092;53.088;8.850;2023-02-01T17:33:24;5.20;99.90
67163;DHT22;54092;53.088;8.850;2023-02-01T17:35:50;4.80;99.90
67163;DHT22;54092;53.088;8.850;2023-02-01T17:38:16;4.50;99.90
67163;DHT22;54092;53.088;8.850;2023-02-01T17:40:41;4.50;99.90
67163;DHT22;54092;53.088;8.850;2023-02-01T17:43:15;4.40;99.90
67163;DHT22;54092;53.088;8.850;2023-02-01T17:45:48;4.30;99.90
67163;DHT22;54092;53.088;8.850;2023-02-01T17:48:18;4.40;99.90
67163;DHT22;54092;53.088;8.850;2023-02-01T17:50:44;4.50;99.90
67163;DHT22;54092;53.088;8.850;2023-02-01T17:53:11;4.50;99.90
67163;DHT22;54092;53.088;8.850;2023-02-01T17:55:41;4.60;99.90
67163;DHT22;54092;53.088;8.850;2023-02-01T17:58:12;4.70;99.90
67163;DHT22;54092;53.088;8.850;2023-02-01T18:00:39;4.80;99.90
67163;DHT22;54092;53.088;8.850;2023-02-01T18:03:05;4.90;99.90
67163;DHT22;54092;53.088;8.850;2023-02-01T18:05:41;5.00;99.90
67163;DHT22;54092;53.088;8.850;2023-02-01T18:08:08;5.10;99.90
67163;DHT22;54092;53.088;8.850;2023-02-01T18:10:34;5.10;99.90
67163;DHT22;54092;53.088;8.850;2023-02-01T18:13:01;5.10;99.90
67163;DHT22;54092;53.088;8.850;2023-02-01T18:15:29;5.20;99.90